sensor_id;sensor_type;location;lat;lon;timestamp;P1;durP1;ratioP1;P2;durP2;ratioP2
3052;SDS011;1536;51.098;6.414;2023-07-20T00:01:31;5.80;;;3.60;;
3052;SDS011;1536;51.098;6.414;2023-07-20T00:03:58;4.57;;;4.03;;
3052;SDS011;1536;51.098;6.414;2023-07-20T00:06:26;6.03;;;3.30;;
3052;SDS011;1536;51.098;6.414;2023-07-20T00:08:53;7.23;;;3.17;;
3052;SDS011;1536;51.098;6.414;2023-07-20T00:11:20;5.30;;;3.60;;
3052;SDS011;1536;51.098;6.414;2023-07-20T00:13:47;8.13;;;3.57;;
3052;SDS011;1536;51.098;6.414;2023-07-20T00:16:14;6.70;;;3.70;;
3052;SDS011;1536;51.098;6.414;2023-07-20T00:18:40;6.07;;;4.13;;
3052;SDS011;1536;51.098;6.414;2023-07-20T00:21:07;7.07;;;4.27;;
3052;SDS011;1536;51.098;6.414;2023-07-20T00:23:35;6.70;;;4.00;;
3052;SDS011;1536;51.098;6.414;2023-07-20T00:26:02;5.77;;;3.87;;
3052;SDS011;1536;51.098;6.414;2023-07-20T00:28:29;7.07;;;3.60;;
3052;SDS011;1536;51.098;6.414;2023-07-20T00:30:56;5.40;;;4.83;;
3052;SDS011;1536;51.098;6.414;2023-07-20T00:33:22;4.60;;;3.97;;
3052;SDS011;1536;51.098;6.414;2023-07-20T00:35:49;5.40;;;4.03;;
3052;SDS011;1536;51.098;6.414;2023-07-20T00:38:17;8.00;;;4.57;;
3052;SDS011;1536;51.098;6.414;2023-07-20T00:40:46;12.23;;;4.40;;
3052;SDS011;1536;51.098;6.414;2023-07-20T00:43:14;4.77;;;3.60;;
3052;SDS011;1536;51.098;6.414;2023-07-20T00:45:41;8.97;;;4.00;;
3052;SDS011;1536;51.098;6.414;2023-07-20T00:48:09;4.60;;;3.70;;
3052;SDS011;1536;51.098;6.414;2023-07-20T00:50:38;9.13;;;3.80;;
3052;SDS011;1536;51.098;6.414;2023-07-20T00:53:06;5.00;;;3.50;;
3052;SDS011;1536;51.098;6.414;2023-07-20T00:55:33;3.87;;;3.47;;
3052;SDS011;1536;51.098;6.414;2023-07-20T00:58:02;4.57;;;4.17;;
3052;SDS011;1536;51.098;6.414;2023-07-20T01:00:29;4.77;;;3.27;;
3052;SDS011;1536;51.098;6.414;2023-07-20T01:02:56;6.40;;;3.80;;
3052;SDS011;1536;51.098;6.414;2023-07-20T01:05:22;6.50;;;4.50;;
3052;SDS011;1536;51.098;6.414;2023-07-20T01:07:55;7.10;;;4.70;;
3052;SDS011;1536;51.098;6.414;2023-07-20T01:10:29;6.47;;;4.23;;
3052;SDS011;1536;51.098;6.414;2023-07-20T01:13:04;5.40;;;4.00;;
3052;SDS011;1536;51.098;6.414;2023-07-20T01:15:33;3.97;;;3.27;;
3052;SDS011;1536;51.098;6.414;2023-07-20T01:18:00;4.57;;;3.40;;
3052;SDS011;1536;51.098;6.414;2023-07-20T01:20:41;5.20;;;3.30;;
3052;SDS011;1536;51.098;6.414;2023-07-20T01:26:13;3.50;;;3.20;;
3052;SDS011;1536;51.098;6.414;2023-07-20T01:29:01;3.33;;;3.03;;
3052;SDS011;1536;51.098;6.414;2023-07-20T01:31:45;4.30;;;3.57;;
3052;SDS011;1536;51.098;6.414;2023-07-20T01:34:17;4.10;;;3.13;;
3052;SDS011;1536;51.098;6.414;2023-07-20T01:36:44;5.23;;;3.53;;
3052;SDS011;1536;51.098;6.414;2023-07-20T01:39:14;3.47;;;3.00;;
3052;SDS011;1536;51.098;6.414;2023-07-20T01:41:41;4.53;;;3.47;;
3052;SDS011;1536;51.098;6.414;2023-07-20T01:47:00;5.33;;;4.10;;
3052;SDS011;1536;51.098;6.414;2023-07-20T01:49:26;6.50;;;3.60;;
3052;SDS011;1536;51.098;6.414;2023-07-20T01:51:53;8.20;;;3.87;;
3052;SDS011;1536;51.098;6.414;2023-07-20T01:54:20;5.27;;;4.00;;
3052;SDS011;1536;51.098;6.414;2023-07-20T01:56:47;8.10;;;4.47;;
3052;SDS011;1536;51.098;6.414;2023-07-20T01:59:13;5.90;;;3.90;;
3052;SDS011;1536;51.098;6.414;2023-07-20T02:01:40;3.90;;;3.27;;
3052;SDS011;1536;51.098;6.414;2023-07-20T02:04:08;6.37;;;4.03;;
3052;SDS011;1536;51.098;6.414;2023-07-20T02:06:36;5.27;;;3.70;;
3052;SDS011;1536;51.098;6.414;2023-07-20T02:09:03;5.63;;;4.17;;
3052;SDS011;1536;51.098;6.414;2023-07-20T02:11:30;7.27;;;4.23;;
3052;SDS011;1536;51.098;6.414;2023-07-20T02:13:56;4.93;;;4.13;;
3052;SDS011;1536;51.098;6.414;2023-07-20T02:16:23;6.20;;;4.70;;
3052;SDS011;1536;51.098;6.414;2023-07-20T02:18:50;6.73;;;4.53;;
3052;SDS011;1536;51.098;6.414;2023-07-20T02:21:18;5.30;;;3.77;;
3052;SDS011;1536;51.098;6.414;2023-07-20T02:23:45;5.40;;;4.30;;
3052;SDS011;1536;51.098;6.414;2023-07-20T02:26:11;6.80;;;4.23;;
3052;SDS011;1536;51.098;6.414;2023-07-20T02:28:38;5.00;;;3.80;;
3052;SDS011;1536;51.098;6.414;2023-07-20T02:31:06;10.33;;;3.60;;
3052;SDS011;1536;51.098;6.414;2023-07-20T02:33:32;5.10;;;4.33;;
3052;SDS011;1536;51.098;6.414;2023-07-20T02:35:59;5.90;;;3.93;;
3052;SDS011;1536;51.098;6.414;2023-07-20T02:38:27;5.20;;;3.70;;
3052;SDS011;1536;51.098;6.414;2023-07-20T02:40:54;3.47;;;3.17;;
3052;SDS011;1536;51.098;6.414;2023-07-20T02:43:21;6.97;;;4.33;;
3052;SDS011;1536;51.098;6.414;2023-07-20T02:45:48;4.63;;;4.17;;
3052;SDS011;1536;51.098;6.414;2023-07-20T02:48:16;6.53;;;4.30;;
3052;SDS011;1536;51.098;6.414;2023-07-20T02:50:43;5.80;;;3.53;;
3052;SDS011;1536;51.098;6.414;2023-07-20T02:53:10;5.13;;;4.20;;
3052;SDS011;1536;51.098;6.414;2023-07-20T02:55:38;6.70;;;3.87;;
3052;SDS011;1536;51.098;6.414;2023-07-20T02:58:05;5.00;;;4.23;;
3052;SDS011;1536;51.098;6.414;2023-07-20T03:00:32;9.43;;;4.07;;
3052;SDS011;1536;51.098;6.414;2023-07-20T03:02:59;7.27;;;3.80;;
3052;SDS011;1536;51.098;6.414;2023-07-20T03:05:26;5.13;;;3.97;;
3052;SDS011;1536;51.098;6.414;2023-07-20T03:07:53;4.93;;;4.10;;
3052;SDS011;1536;51.098;6.414;2023-07-20T03:10:21;4.77;;;4.10;;
3052;SDS011;1536;51.098;6.414;2023-07-20T03:12:49;11.80;;;6.63;;
3052;SDS011;1536;51.098;6.414;2023-07-20T03:15:16;7.67;;;5.90;;
3052;SDS011;1536;51.098;6.414;2023-07-20T03:17:43;5.93;;;4.33;;
3052;SDS011;1536;51.098;6.414;2023-07-20T03:20:10;4.47;;;4.07;;
3052;SDS011;1536;51.098;6.414;2023-07-20T03:22:37;8.40;;;4.00;;
3052;SDS011;1536;51.098;6.414;2023-07-20T03:25:05;6.93;;;4.97;;
3052;SDS011;1536;51.098;6.414;2023-07-20T03:27:33;5.03;;;4.33;;
3052;SDS011;1536;51.098;6.414;2023-07-20T03:30:01;6.93;;;4.60;;
3052;SDS011;1536;51.098;6.414;2023-07-20T03:32:28;8.20;;;5.10;;
3052;SDS011;1536;51.098;6.414;2023-07-20T03:34:54;5.43;;;3.70;;
3052;SDS011;1536;51.098;6.414;2023-07-20T03:37:21;7.77;;;4.50;;
3052;SDS011;1536;51.098;6.414;2023-07-20T03:39:48;5.20;;;4.70;;
3052;SDS011;1536;51.098;6.414;2023-07-20T03:42:15;6.63;;;3.77;;
3052;SDS011;1536;51.098;6.414;2023-07-20T03:44:41;6.40;;;4.83;;
3052;SDS011;1536;51.098;6.414;2023-07-20T03:47:10;7.10;;;4.43;;
3052;SDS011;1536;51.098;6.414;2023-07-20T03:49:37;7.87;;;3.80;;
3052;SDS011;1536;51.098;6.414;2023-07-20T03:52:04;7.37;;;3.93;;
3052;SDS011;1536;51.098;6.414;2023-07-20T03:54:31;5.70;;;4.10;;
3052;SDS011;1536;51.098;6.414;2023-07-20T03:56:58;5.83;;;4.47;;
3052;SDS011;1536;51.098;6.414;2023-07-20T03:59:25;8.17;;;4.37;;
3052;SDS011;1536;51.098;6.414;2023-07-20T04:01:53;5.73;;;3.83;;
3052;SDS011;1536;51.098;6.414;2023-07-20T04:04:21;7.03;;;4.40;;
3052;SDS011;1536;51.098;6.414;2023-07-20T04:06:47;4.00;;;3.60;;
3052;SDS011;1536;51.098;6.414;2023-07-20T04:09:14;7.97;;;4.40;;
3052;SDS011;1536;51.098;6.414;2023-07-20T04:11:41;5.23;;;3.90;;
3052;SDS011;1536;51.098;6.414;2023-07-20T04:14:08;6.53;;;4.27;;
3052;SDS011;1536;51.098;6.414;2023-07-20T04:16:35;5.50;;;4.20;;
3052;SDS011;1536;51.098;6.414;2023-07-20T04:19:02;5.03;;;4.20;;
3052;SDS011;1536;51.098;6.414;2023-07-20T04:21:30;5.27;;;4.73;;
3052;SDS011;1536;51.098;6.414;2023-07-20T04:23:57;10.40;;;5.03;;
3052;SDS011;1536;51.098;6.414;2023-07-20T04:26:24;7.53;;;5.10;;
3052;SDS011;1536;51.098;6.414;2023-07-20T04:28:51;4.17;;;3.73;;
3052;SDS011;1536;51.098;6.414;2023-07-20T04:31:18;8.57;;;5.43;;
3052;SDS011;1536;51.098;6.414;2023-07-20T04:33:44;8.67;;;4.80;;
3052;SDS011;1536;51.098;6.414;2023-07-20T04:36:12;10.00;;;5.77;;
3052;SDS011;1536;51.098;6.414;2023-07-20T04:38:42;7.83;;;4.87;;
3052;SDS011;1536;51.098;6.414;2023-07-20T04:41:09;9.50;;;5.80;;
3052;SDS011;1536;51.098;6.414;2023-07-20T04:43:41;7.50;;;5.63;;
3052;SDS011;1536;51.098;6.414;2023-07-20T04:46:08;6.20;;;5.70;;
3052;SDS011;1536;51.098;6.414;2023-07-20T04:48:35;12.07;;;5.80;;
3052;SDS011;1536;51.098;6.414;2023-07-20T04:51:02;6.23;;;4.53;;
3052;SDS011;1536;51.098;6.414;2023-07-20T04:53:29;11.20;;;5.97;;
3052;SDS011;1536;51.098;6.414;2023-07-20T04:55:57;7.30;;;5.70;;
3052;SDS011;1536;51.098;6.414;2023-07-20T04:58:24;13.03;;;5.17;;
3052;SDS011;1536;51.098;6.414;2023-07-20T05:00:51;11.87;;;5.80;;
3052;SDS011;1536;51.098;6.414;2023-07-20T05:03:18;8.97;;;6.40;;
3052;SDS011;1536;51.098;6.414;2023-07-20T05:05:46;7.87;;;6.00;;
3052;SDS011;1536;51.098;6.414;2023-07-20T05:08:13;12.03;;;6.03;;
3052;SDS011;1536;51.098;6.414;2023-07-20T05:10:39;10.00;;;6.83;;
3052;SDS011;1536;51.098;6.414;2023-07-20T05:13:07;9.00;;;6.23;;
3052;SDS011;1536;51.098;6.414;2023-07-20T05:15:34;9.33;;;7.27;;
3052;SDS011;1536;51.098;6.414;2023-07-20T05:18:01;12.30;;;7.83;;
3052;SDS011;1536;51.098;6.414;2023-07-20T05:20:28;17.53;;;7.63;;
3052;SDS011;1536;51.098;6.414;2023-07-20T05:22:56;10.20;;;8.10;;
3052;SDS011;1536;51.098;6.414;2023-07-20T05:25:23;9.27;;;7.50;;
3052;SDS011;1536;51.098;6.414;2023-07-20T05:27:51;10.53;;;8.40;;
3052;SDS011;1536;51.098;6.414;2023-07-20T05:30:21;12.93;;;7.37;;
3052;SDS011;1536;51.098;6.414;2023-07-20T05:32:48;10.13;;;7.67;;
3052;SDS011;1536;51.098;6.414;2023-07-20T05:35:17;11.97;;;7.30;;
3052;SDS011;1536;51.098;6.414;2023-07-20T05:37:44;11.47;;;7.73;;
3052;SDS011;1536;51.098;6.414;2023-07-20T05:40:11;8.63;;;7.83;;
3052;SDS011;1536;51.098;6.414;2023-07-20T05:42:38;11.10;;;8.50;;
3052;SDS011;1536;51.098;6.414;2023-07-20T05:45:05;13.97;;;8.77;;
3052;SDS011;1536;51.098;6.414;2023-07-20T05:47:34;16.13;;;10.73;;
3052;SDS011;1536;51.098;6.414;2023-07-20T05:50:01;12.70;;;9.83;;
3052;SDS011;1536;51.098;6.414;2023-07-20T05:52:28;13.97;;;9.27;;
3052;SDS011;1536;51.098;6.414;2023-07-20T05:54:55;14.43;;;10.03;;
3052;SDS011;1536;51.098;6.414;2023-07-20T05:57:22;10.37;;;8.47;;
3052;SDS011;1536;51.098;6.414;2023-07-20T05:59:48;13.47;;;9.70;;
3052;SDS011;1536;51.098;6.414;2023-07-20T06:02:15;14.10;;;10.03;;
3052;SDS011;1536;51.098;6.414;2023-07-20T06:04:43;11.40;;;10.30;;
3052;SDS011;1536;51.098;6.414;2023-07-20T06:07:11;14.37;;;11.27;;
3052;SDS011;1536;51.098;6.414;2023-07-20T06:09:37;16.23;;;12.10;;
3052;SDS011;1536;51.098;6.414;2023-07-20T06:12:05;12.70;;;11.07;;
3052;SDS011;1536;51.098;6.414;2023-07-20T06:14:33;14.10;;;10.80;;
3052;SDS011;1536;51.098;6.414;2023-07-20T06:17:00;13.33;;;10.93;;
3052;SDS011;1536;51.098;6.414;2023-07-20T06:19:26;10.70;;;9.40;;
3052;SDS011;1536;51.098;6.414;2023-07-20T06:21:54;11.67;;;9.50;;
3052;SDS011;1536;51.098;6.414;2023-07-20T06:24:21;9.70;;;8.73;;
3052;SDS011;1536;51.098;6.414;2023-07-20T06:26:48;16.50;;;10.00;;
3052;SDS011;1536;51.098;6.414;2023-07-20T06:29:14;9.30;;;8.40;;
3052;SDS011;1536;51.098;6.414;2023-07-20T06:31:41;8.80;;;7.90;;
3052;SDS011;1536;51.098;6.414;2023-07-20T06:34:08;14.40;;;9.30;;
3052;SDS011;1536;51.098;6.414;2023-07-20T06:36:35;10.17;;;8.17;;
3052;SDS011;1536;51.098;6.414;2023-07-20T06:39:03;11.67;;;7.90;;
3052;SDS011;1536;51.098;6.414;2023-07-20T06:41:30;7.83;;;7.03;;
3052;SDS011;1536;51.098;6.414;2023-07-20T06:43:57;10.90;;;7.97;;
3052;SDS011;1536;51.098;6.414;2023-07-20T06:46:24;9.97;;;8.43;;
3052;SDS011;1536;51.098;6.414;2023-07-20T06:48:51;9.23;;;8.33;;
3052;SDS011;1536;51.098;6.414;2023-07-20T06:51:18;11.27;;;8.53;;
3052;SDS011;1536;51.098;6.414;2023-07-20T06:53:45;10.70;;;8.40;;
3052;SDS011;1536;51.098;6.414;2023-07-20T06:56:13;14.50;;;9.00;;
3052;SDS011;1536;51.098;6.414;2023-07-20T06:58:40;10.37;;;9.20;;
3052;SDS011;1536;51.098;6.414;2023-07-20T07:01:07;11.10;;;10.00;;
3052;SDS011;1536;51.098;6.414;2023-07-20T07:03:34;11.00;;;9.40;;
3052;SDS011;1536;51.098;6.414;2023-07-20T07:06:01;16.13;;;10.93;;
3052;SDS011;1536;51.098;6.414;2023-07-20T07:08:29;11.87;;;10.43;;
3052;SDS011;1536;51.098;6.414;2023-07-20T07:10:55;12.23;;;10.53;;
3052;SDS011;1536;51.098;6.414;2023-07-20T07:13:23;16.53;;;11.20;;
3052;SDS011;1536;51.098;6.414;2023-07-20T07:15:50;11.90;;;10.20;;
3052;SDS011;1536;51.098;6.414;2023-07-20T07:18:17;12.93;;;9.47;;
3052;SDS011;1536;51.098;6.414;2023-07-20T07:20:49;10.17;;;9.00;;
3052;SDS011;1536;51.098;6.414;2023-07-20T07:23:17;12.20;;;8.47;;
3052;SDS011;1536;51.098;6.414;2023-07-20T07:25:44;11.40;;;7.90;;
3052;SDS011;1536;51.098;6.414;2023-07-20T07:28:11;11.83;;;7.13;;
3052;SDS011;1536;51.098;6.414;2023-07-20T07:30:39;8.30;;;7.27;;
3052;SDS011;1536;51.098;6.414;2023-07-20T07:33:06;8.63;;;6.90;;
3052;SDS011;1536;51.098;6.414;2023-07-20T07:35:33;6.87;;;6.27;;
3052;SDS011;1536;51.098;6.414;2023-07-20T07:38:00;9.03;;;6.20;;
3052;SDS011;1536;51.098;6.414;2023-07-20T07:40:27;6.80;;;6.10;;
3052;SDS011;1536;51.098;6.414;2023-07-20T07:42:53;7.03;;;6.33;;
3052;SDS011;1536;51.098;6.414;2023-07-20T07:45:20;7.80;;;5.83;;
3052;SDS011;1536;51.098;6.414;2023-07-20T07:47:48;6.40;;;5.50;;
3052;SDS011;1536;51.098;6.414;2023-07-20T07:50:15;7.03;;;5.30;;
3052;SDS011;1536;51.098;6.414;2023-07-20T07:52:42;4.77;;;4.20;;
3052;SDS011;1536;51.098;6.414;2023-07-20T07:55:09;3.87;;;3.50;;
3052;SDS011;1536;51.098;6.414;2023-07-20T07:57:35;4.80;;;3.30;;
3052;SDS011;1536;51.098;6.414;2023-07-20T08:00:02;4.00;;;3.60;;
3052;SDS011;1536;51.098;6.414;2023-07-20T08:02:31;4.23;;;3.60;;
3052;SDS011;1536;51.098;6.414;2023-07-20T08:05:01;5.67;;;5.07;;
3052;SDS011;1536;51.098;6.414;2023-07-20T08:07:28;4.53;;;4.13;;
3052;SDS011;1536;51.098;6.414;2023-07-20T08:09:55;5.40;;;4.00;;
3052;SDS011;1536;51.098;6.414;2023-07-20T08:12:21;3.40;;;3.10;;
3052;SDS011;1536;51.098;6.414;2023-07-20T08:14:48;3.53;;;3.20;;
3052;SDS011;1536;51.098;6.414;2023-07-20T08:17:15;3.53;;;3.17;;
3052;SDS011;1536;51.098;6.414;2023-07-20T08:19:42;5.17;;;3.77;;
3052;SDS011;1536;51.098;6.414;2023-07-20T08:22:10;3.83;;;3.13;;
3052;SDS011;1536;51.098;6.414;2023-07-20T08:24:38;3.20;;;2.80;;
3052;SDS011;1536;51.098;6.414;2023-07-20T08:27:06;2.83;;;2.60;;
3052;SDS011;1536;51.098;6.414;2023-07-20T08:29:33;4.33;;;3.40;;
3052;SDS011;1536;51.098;6.414;2023-07-20T08:32:00;5.23;;;3.60;;
3052;SDS011;1536;51.098;6.414;2023-07-20T08:34:27;3.37;;;3.07;;
3052;SDS011;1536;51.098;6.414;2023-07-20T08:36:54;3.73;;;2.63;;
3052;SDS011;1536;51.098;6.414;2023-07-20T08:39:22;2.20;;;2.00;;
3052;SDS011;1536;51.098;6.414;2023-07-20T08:41:49;5.07;;;2.70;;
3052;SDS011;1536;51.098;6.414;2023-07-20T08:44:16;2.73;;;2.47;;
3052;SDS011;1536;51.098;6.414;2023-07-20T08:46:43;2.83;;;2.47;;
3052;SDS011;1536;51.098;6.414;2023-07-20T08:49:11;3.60;;;2.60;;
3052;SDS011;1536;51.098;6.414;2023-07-20T08:51:38;6.40;;;2.60;;
3052;SDS011;1536;51.098;6.414;2023-07-20T08:54:06;7.73;;;2.00;;
3052;SDS011;1536;51.098;6.414;2023-07-20T08:56:37;2.97;;;2.40;;
3052;SDS011;1536;51.098;6.414;2023-07-20T08:59:04;2.30;;;2.10;;
3052;SDS011;1536;51.098;6.414;2023-07-20T09:01:31;2.60;;;2.40;;
3052;SDS011;1536;51.098;6.414;2023-07-20T09:03:59;2.10;;;2.00;;
3052;SDS011;1536;51.098;6.414;2023-07-20T09:06:26;2.40;;;1.93;;
3052;SDS011;1536;51.098;6.414;2023-07-20T09:08:53;2.43;;;1.97;;
3052;SDS011;1536;51.098;6.414;2023-07-20T09:11:20;1.90;;;1.60;;
3052;SDS011;1536;51.098;6.414;2023-07-20T09:13:48;1.93;;;1.83;;
3052;SDS011;1536;51.098;6.414;2023-07-20T09:16:27;2.10;;;2.00;;
3052;SDS011;1536;51.098;6.414;2023-07-20T09:18:54;2.23;;;1.73;;
3052;SDS011;1536;51.098;6.414;2023-07-20T09:21:24;2.00;;;1.80;;
3052;SDS011;1536;51.098;6.414;2023-07-20T09:23:56;2.23;;;1.60;;
3052;SDS011;1536;51.098;6.414;2023-07-20T09:26:23;1.60;;;1.40;;
3052;SDS011;1536;51.098;6.414;2023-07-20T09:28:52;4.20;;;1.97;;
3052;SDS011;1536;51.098;6.414;2023-07-20T09:31:20;1.90;;;1.80;;
3052;SDS011;1536;51.098;6.414;2023-07-20T09:33:48;3.00;;;2.03;;
3052;SDS011;1536;51.098;6.414;2023-07-20T09:36:18;3.53;;;1.90;;
3052;SDS011;1536;51.098;6.414;2023-07-20T09:38:44;5.20;;;1.60;;
3052;SDS011;1536;51.098;6.414;2023-07-20T09:41:13;3.63;;;1.73;;
3052;SDS011;1536;51.098;6.414;2023-07-20T09:43:40;4.50;;;1.70;;
3052;SDS011;1536;51.098;6.414;2023-07-20T09:46:09;2.40;;;1.90;;
3052;SDS011;1536;51.098;6.414;2023-07-20T09:48:36;5.00;;;2.50;;
3052;SDS011;1536;51.098;6.414;2023-07-20T09:51:03;3.10;;;2.80;;
3052;SDS011;1536;51.098;6.414;2023-07-20T09:53:33;2.40;;;2.20;;
3052;SDS011;1536;51.098;6.414;2023-07-20T09:56:00;2.27;;;2.07;;
3052;SDS011;1536;51.098;6.414;2023-07-20T09:58:28;2.90;;;2.23;;
3052;SDS011;1536;51.098;6.414;2023-07-20T10:00:57;2.07;;;1.80;;
3052;SDS011;1536;51.098;6.414;2023-07-20T10:03:29;2.10;;;1.90;;
3052;SDS011;1536;51.098;6.414;2023-07-20T10:05:57;2.53;;;1.77;;
3052;SDS011;1536;51.098;6.414;2023-07-20T10:08:28;2.03;;;1.60;;
3052;SDS011;1536;51.098;6.414;2023-07-20T10:10:57;2.00;;;1.90;;
3052;SDS011;1536;51.098;6.414;2023-07-20T10:13:26;2.13;;;1.93;;
3052;SDS011;1536;51.098;6.414;2023-07-20T10:15:53;2.70;;;2.30;;
3052;SDS011;1536;51.098;6.414;2023-07-20T10:18:25;2.70;;;2.00;;
3052;SDS011;1536;51.098;6.414;2023-07-20T10:20:56;2.20;;;2.00;;
3052;SDS011;1536;51.098;6.414;2023-07-20T10:23:25;2.67;;;2.47;;
3052;SDS011;1536;51.098;6.414;2023-07-20T10:25:54;2.53;;;2.07;;
3052;SDS011;1536;51.098;6.414;2023-07-20T10:28:22;2.80;;;2.00;;
3052;SDS011;1536;51.098;6.414;2023-07-20T10:30:50;2.00;;;1.90;;
3052;SDS011;1536;51.098;6.414;2023-07-20T10:33:17;2.30;;;2.10;;
3052;SDS011;1536;51.098;6.414;2023-07-20T10:35:52;2.97;;;2.67;;
3052;SDS011;1536;51.098;6.414;2023-07-20T10:38:19;3.03;;;2.73;;
3052;SDS011;1536;51.098;6.414;2023-07-20T10:40:54;2.43;;;2.00;;
3052;SDS011;1536;51.098;6.414;2023-07-20T10:43:21;2.47;;;2.00;;
3052;SDS011;1536;51.098;6.414;2023-07-20T10:45:48;2.00;;;1.80;;
3052;SDS011;1536;51.098;6.414;2023-07-20T10:48:16;2.10;;;1.90;;
3052;SDS011;1536;51.098;6.414;2023-07-20T10:50:44;1.80;;;1.70;;
3052;SDS011;1536;51.098;6.414;2023-07-20T10:53:14;1.83;;;1.73;;
3052;SDS011;1536;51.098;6.414;2023-07-20T10:55:43;1.70;;;1.60;;
3052;SDS011;1536;51.098;6.414;2023-07-20T10:58:12;1.70;;;1.57;;
3052;SDS011;1536;51.098;6.414;2023-07-20T11:00:54;2.13;;;1.73;;
3052;SDS011;1536;51.098;6.414;2023-07-20T11:03:26;2.27;;;1.70;;
3052;SDS011;1536;51.098;6.414;2023-07-20T11:05:54;6.33;;;1.90;;
3052;SDS011;1536;51.098;6.414;2023-07-20T11:11:26;1.90;;;1.80;;
3052;SDS011;1536;51.098;6.414;2023-07-20T11:13:53;3.77;;;1.80;;
3052;SDS011;1536;51.098;6.414;2023-07-20T11:16:31;3.10;;;1.57;;
3052;SDS011;1536;51.098;6.414;2023-07-20T11:19:03;1.80;;;1.70;;
3052;SDS011;1536;51.098;6.414;2023-07-20T11:21:34;1.70;;;1.60;;
3052;SDS011;1536;51.098;6.414;2023-07-20T11:24:02;3.33;;;1.90;;
3052;SDS011;1536;51.098;6.414;2023-07-20T11:26:31;2.03;;;1.83;;
3052;SDS011;1536;51.098;6.414;2023-07-20T11:29:06;2.53;;;2.00;;
3052;SDS011;1536;51.098;6.414;2023-07-20T11:31:34;2.70;;;1.97;;
3052;SDS011;1536;51.098;6.414;2023-07-20T11:34:02;2.27;;;2.10;;
3052;SDS011;1536;51.098;6.414;2023-07-20T11:36:28;2.27;;;2.17;;
3052;SDS011;1536;51.098;6.414;2023-07-20T11:38:55;1.83;;;1.73;;
3052;SDS011;1536;51.098;6.414;2023-07-20T11:41:22;1.70;;;1.60;;
3052;SDS011;1536;51.098;6.414;2023-07-20T11:43:50;10.83;;;2.07;;
3052;SDS011;1536;51.098;6.414;2023-07-20T11:46:16;2.20;;;2.10;;
3052;SDS011;1536;51.098;6.414;2023-07-20T11:48:43;2.07;;;1.97;;
3052;SDS011;1536;51.098;6.414;2023-07-20T11:51:13;1.90;;;1.80;;
3052;SDS011;1536;51.098;6.414;2023-07-20T11:53:40;2.40;;;2.20;;
3052;SDS011;1536;51.098;6.414;2023-07-20T11:56:07;2.47;;;2.03;;
3052;SDS011;1536;51.098;6.414;2023-07-20T11:58:34;1.97;;;1.80;;
3052;SDS011;1536;51.098;6.414;2023-07-20T12:01:02;2.03;;;1.90;;
3052;SDS011;1536;51.098;6.414;2023-07-20T12:03:29;2.17;;;1.90;;
3052;SDS011;1536;51.098;6.414;2023-07-20T12:05:56;2.20;;;2.00;;
3052;SDS011;1536;51.098;6.414;2023-07-20T12:08:31;1.80;;;1.70;;
3052;SDS011;1536;51.098;6.414;2023-07-20T12:10:58;2.13;;;1.93;;
3052;SDS011;1536;51.098;6.414;2023-07-20T12:13:35;2.90;;;2.10;;
3052;SDS011;1536;51.098;6.414;2023-07-20T12:16:08;1.93;;;1.83;;
3052;SDS011;1536;51.098;6.414;2023-07-20T12:18:36;2.00;;;1.90;;
3052;SDS011;1536;51.098;6.414;2023-07-20T12:21:02;2.47;;;2.03;;
3052;SDS011;1536;51.098;6.414;2023-07-20T12:23:34;4.20;;;2.27;;
3052;SDS011;1536;51.098;6.414;2023-07-20T12:26:01;2.00;;;1.87;;
3052;SDS011;1536;51.098;6.414;2023-07-20T12:28:29;2.20;;;2.00;;
3052;SDS011;1536;51.098;6.414;2023-07-20T12:30:56;2.67;;;2.03;;
3052;SDS011;1536;51.098;6.414;2023-07-20T12:33:24;2.50;;;2.30;;
3052;SDS011;1536;51.098;6.414;2023-07-20T12:35:50;2.10;;;1.93;;
3052;SDS011;1536;51.098;6.414;2023-07-20T12:38:20;3.20;;;1.80;;
3052;SDS011;1536;51.098;6.414;2023-07-20T12:40:48;2.73;;;2.53;;
3052;SDS011;1536;51.098;6.414;2023-07-20T12:43:14;3.40;;;2.40;;
3052;SDS011;1536;51.098;6.414;2023-07-20T12:45:41;1.70;;;1.60;;
3052;SDS011;1536;51.098;6.414;2023-07-20T12:48:08;2.43;;;1.70;;
3052;SDS011;1536;51.098;6.414;2023-07-20T12:50:36;1.80;;;1.70;;
3052;SDS011;1536;51.098;6.414;2023-07-20T12:53:02;3.10;;;2.67;;
3052;SDS011;1536;51.098;6.414;2023-07-20T12:55:29;2.20;;;2.00;;
3052;SDS011;1536;51.098;6.414;2023-07-20T12:57:56;1.83;;;1.70;;
3052;SDS011;1536;51.098;6.414;2023-07-20T13:00:22;2.50;;;2.10;;
3052;SDS011;1536;51.098;6.414;2023-07-20T13:02:49;3.77;;;2.73;;
3052;SDS011;1536;51.098;6.414;2023-07-20T13:05:16;2.60;;;2.00;;
3052;SDS011;1536;51.098;6.414;2023-07-20T13:07:44;2.03;;;1.93;;
3052;SDS011;1536;51.098;6.414;2023-07-20T13:10:11;2.00;;;1.90;;
3052;SDS011;1536;51.098;6.414;2023-07-20T13:12:37;2.17;;;1.70;;
3052;SDS011;1536;51.098;6.414;2023-07-20T13:15:05;5.13;;;1.73;;
3052;SDS011;1536;51.098;6.414;2023-07-20T13:17:34;2.10;;;1.90;;
3052;SDS011;1536;51.098;6.414;2023-07-20T13:20:01;2.27;;;1.60;;
3052;SDS011;1536;51.098;6.414;2023-07-20T13:22:29;2.00;;;1.80;;
3052;SDS011;1536;51.098;6.414;2023-07-20T13:24:57;2.20;;;1.70;;
3052;SDS011;1536;51.098;6.414;2023-07-20T13:27:24;1.73;;;1.63;;
3052;SDS011;1536;51.098;6.414;2023-07-20T13:29:51;2.20;;;2.00;;
3052;SDS011;1536;51.098;6.414;2023-07-20T13:32:18;2.30;;;2.00;;
3052;SDS011;1536;51.098;6.414;2023-07-20T13:34:45;1.90;;;1.80;;
3052;SDS011;1536;51.098;6.414;2023-07-20T13:37:13;2.60;;;1.90;;
3052;SDS011;1536;51.098;6.414;2023-07-20T13:39:41;2.40;;;1.77;;
3052;SDS011;1536;51.098;6.414;2023-07-20T13:42:09;6.90;;;2.17;;
3052;SDS011;1536;51.098;6.414;2023-07-20T13:44:37;2.50;;;1.80;;
3052;SDS011;1536;51.098;6.414;2023-07-20T13:47:04;1.70;;;1.60;;
3052;SDS011;1536;51.098;6.414;2023-07-20T13:49:31;2.70;;;2.00;;
3052;SDS011;1536;51.098;6.414;2023-07-20T13:51:58;2.10;;;1.83;;
3052;SDS011;1536;51.098;6.414;2023-07-20T13:54:24;2.33;;;2.13;;
3052;SDS011;1536;51.098;6.414;2023-07-20T13:56:51;4.33;;;2.30;;
3052;SDS011;1536;51.098;6.414;2023-07-20T13:59:19;6.50;;;2.10;;
3052;SDS011;1536;51.098;6.414;2023-07-20T14:01:46;4.90;;;2.00;;
3052;SDS011;1536;51.098;6.414;2023-07-20T14:04:13;1.83;;;1.73;;
3052;SDS011;1536;51.098;6.414;2023-07-20T14:06:39;2.70;;;2.50;;
3052;SDS011;1536;51.098;6.414;2023-07-20T14:09:06;2.23;;;2.03;;
3052;SDS011;1536;51.098;6.414;2023-07-20T14:11:33;1.70;;;1.60;;
3052;SDS011;1536;51.098;6.414;2023-07-20T14:14:00;2.27;;;1.93;;
3052;SDS011;1536;51.098;6.414;2023-07-20T14:16:28;2.30;;;2.10;;
3052;SDS011;1536;51.098;6.414;2023-07-20T14:18:57;2.70;;;2.10;;
3052;SDS011;1536;51.098;6.414;2023-07-20T14:21:24;2.67;;;2.47;;
3052;SDS011;1536;51.098;6.414;2023-07-20T14:23:51;2.50;;;2.30;;
3052;SDS011;1536;51.098;6.414;2023-07-20T14:26:18;3.70;;;2.50;;
3052;SDS011;1536;51.098;6.414;2023-07-20T14:28:45;2.00;;;1.90;;
3052;SDS011;1536;51.098;6.414;2023-07-20T14:31:11;2.13;;;2.03;;
3052;SDS011;1536;51.098;6.414;2023-07-20T14:33:40;2.70;;;2.50;;
3052;SDS011;1536;51.098;6.414;2023-07-20T14:36:06;2.40;;;2.20;;
3052;SDS011;1536;51.098;6.414;2023-07-20T14:38:33;2.20;;;2.10;;
3052;SDS011;1536;51.098;6.414;2023-07-20T14:41:01;3.20;;;2.33;;
3052;SDS011;1536;51.098;6.414;2023-07-20T14:43:28;2.87;;;2.67;;
3052;SDS011;1536;51.098;6.414;2023-07-20T14:45:54;2.40;;;2.20;;
3052;SDS011;1536;51.098;6.414;2023-07-20T14:48:21;2.20;;;2.00;;
3052;SDS011;1536;51.098;6.414;2023-07-20T14:50:49;3.07;;;2.47;;
3052;SDS011;1536;51.098;6.414;2023-07-20T14:53:15;2.90;;;2.70;;
3052;SDS011;1536;51.098;6.414;2023-07-20T14:55:42;2.83;;;2.50;;
3052;SDS011;1536;51.098;6.414;2023-07-20T14:58:09;2.50;;;2.40;;
3052;SDS011;1536;51.098;6.414;2023-07-20T15:00:36;2.57;;;2.43;;
3052;SDS011;1536;51.098;6.414;2023-07-20T15:03:02;2.20;;;2.00;;
3052;SDS011;1536;51.098;6.414;2023-07-20T15:05:30;2.50;;;2.10;;
3052;SDS011;1536;51.098;6.414;2023-07-20T15:07:58;2.30;;;2.10;;
3052;SDS011;1536;51.098;6.414;2023-07-20T15:10:25;3.40;;;2.20;;
3052;SDS011;1536;51.098;6.414;2023-07-20T15:12:51;2.50;;;2.30;;
3052;SDS011;1536;51.098;6.414;2023-07-20T15:15:18;2.20;;;2.07;;
3052;SDS011;1536;51.098;6.414;2023-07-20T15:17:45;4.00;;;2.17;;
3052;SDS011;1536;51.098;6.414;2023-07-20T15:20:12;2.30;;;2.10;;
3052;SDS011;1536;51.098;6.414;2023-07-20T15:22:39;2.70;;;2.17;;
3052;SDS011;1536;51.098;6.414;2023-07-20T15:25:09;2.80;;;2.03;;